createdAt,value
2019-01-30T00:01:16.403Z,7.23
2019-01-30T00:03:44.617Z,7.60
2019-01-30T00:06:12.661Z,8.95
2019-01-30T00:08:40.748Z,6.50
2019-01-30T00:11:08.783Z,7.30
2019-01-30T00:13:36.884Z,7.97
2019-01-30T00:16:04.906Z,6.90
2019-01-30T00:18:32.936Z,6.47
2019-01-30T00:21:00.963Z,8.13
2019-01-30T00:23:28.976Z,8.90
2019-01-30T00:25:56.984Z,6.80
2019-01-30T00:28:24.991Z,10.37
2019-01-30T00:30:53.041Z,6.40
2019-01-30T00:33:21.074Z,6.17
2019-01-30T00:35:49.230Z,5.60
2019-01-30T00:38:17.254Z,7.70
2019-01-30T00:40:46.058Z,6.93
2019-01-30T00:43:16.825Z,8.50
2019-01-30T00:45:47.161Z,7.63
2019-01-30T00:48:15.377Z,6.80
2019-01-30T00:50:43.489Z,6.10
2019-01-30T00:53:11.616Z,8.28
2019-01-30T00:55:39.735Z,5.90
2019-01-30T00:58:08.480Z,5.60
2019-01-30T01:00:38.112Z,8.07
2019-01-30T01:03:06.247Z,7.03
2019-01-30T01:05:37.811Z,8.90
2019-01-30T01:08:03.989Z,7.70
2019-01-30T01:10:33.832Z,6.67
2019-01-30T01:13:06.260Z,7.67
2019-01-30T01:15:37.732Z,8.53
2019-01-30T01:18:07.278Z,6.10
2019-01-30T01:20:35.380Z,6.13
2019-01-30T01:23:03.376Z,8.47
2019-01-30T01:25:34.351Z,8.80
2019-01-30T01:28:03.589Z,8.55
2019-01-30T01:30:31.494Z,7.10
2019-01-30T01:33:01.509Z,8.90
2019-01-30T01:35:29.299Z,6.30
2019-01-30T01:37:57.312Z,13.23
2019-01-30T01:40:25.404Z,7.57
2019-01-30T01:42:53.676Z,8.63
2019-01-30T01:45:22.512Z,7.20
2019-01-30T01:47:50.957Z,9.68
2019-01-30T01:50:21.023Z,7.90
2019-01-30T01:52:49.105Z,9.60
2019-01-30T01:55:17.263Z,8.23
2019-01-30T01:57:45.286Z,8.27
2019-01-30T02:00:14.929Z,6.77
2019-01-30T02:02:43.036Z,11.77
2019-01-30T02:05:12.371Z,10.30
2019-01-30T02:07:40.420Z,13.30
2019-01-30T02:10:10.061Z,7.58
2019-01-30T02:12:38.099Z,6.97
2019-01-30T02:15:08.027Z,9.50
2019-01-30T02:17:36.145Z,10.37
2019-01-30T02:20:06.981Z,9.07
2019-01-30T02:22:35.146Z,8.68
2019-01-30T02:25:03.224Z,12.67
2019-01-30T02:27:31.334Z,12.40
2019-01-30T02:29:59.591Z,9.27
2019-01-30T02:32:28.429Z,12.77
2019-01-30T02:34:56.534Z,9.60
2019-01-30T02:37:24.551Z,10.27
2019-01-30T02:39:52.685Z,13.60
2019-01-30T02:42:20.707Z,7.87
2019-01-30T02:44:48.792Z,11.37
2019-01-30T02:47:16.929Z,9.87
2019-01-30T02:49:44.995Z,9.87
2019-01-30T02:52:13.031Z,11.57
2019-01-30T02:54:41.375Z,11.27
2019-01-30T02:57:09.481Z,11.45
2019-01-30T02:59:37.509Z,9.33
2019-01-30T03:02:12.765Z,9.73
2019-01-30T03:04:40.875Z,13.63
2019-01-30T03:07:08.944Z,11.90
2019-01-30T03:09:37.000Z,12.73
2019-01-30T03:12:05.112Z,12.57
2019-01-30T03:14:33.166Z,17.05
2019-01-30T03:17:01.223Z,12.10
2019-01-30T03:19:29.231Z,17.90
2019-01-30T03:21:57.351Z,18.87
2019-01-30T03:24:25.484Z,14.30
2019-01-30T03:26:53.491Z,16.90
2019-01-30T03:29:21.766Z,11.00
2019-01-30T03:31:49.815Z,15.00
2019-01-30T03:34:18.299Z,13.10
2019-01-30T03:36:46.375Z,12.63
2019-01-30T03:39:14.529Z,13.55
2019-01-30T03:41:42.607Z,17.37
2019-01-30T03:44:10.942Z,20.13
2019-01-30T03:46:39.063Z,13.25
2019-01-30T03:49:07.119Z,12.40
2019-01-30T03:51:35.938Z,11.00
2019-01-30T03:54:04.066Z,16.37
2019-01-30T03:56:32.195Z,11.23
2019-01-30T03:59:00.348Z,10.55
2019-01-30T04:01:28.424Z,17.23
2019-01-30T04:03:56.539Z,14.97
2019-01-30T04:06:24.568Z,12.10
2019-01-30T04:08:53.116Z,14.40
2019-01-30T04:11:21.145Z,18.70
2019-01-30T04:13:50.063Z,11.23
2019-01-30T04:16:18.183Z,13.10
2019-01-30T04:18:46.195Z,12.27
2019-01-30T04:21:17.098Z,12.60
2019-01-30T04:23:45.182Z,10.13
2019-01-30T04:26:13.367Z,11.30
2019-01-30T04:28:41.373Z,14.23
2019-01-30T04:31:10.139Z,12.77
2019-01-30T04:33:38.146Z,12.50
2019-01-30T04:36:06.172Z,11.63
2019-01-30T04:38:34.199Z,9.43
2019-01-30T04:41:02.297Z,11.33
2019-01-30T04:43:31.865Z,17.92
2019-01-30T04:46:00.106Z,11.00
2019-01-30T04:48:28.177Z,16.63
2019-01-30T04:50:56.228Z,13.40
2019-01-30T04:53:27.223Z,12.13
2019-01-30T04:55:55.268Z,10.57
2019-01-30T04:58:23.294Z,12.53
2019-01-30T05:00:54.439Z,13.63
2019-01-30T05:03:24.507Z,13.70
2019-01-30T05:05:52.442Z,10.80
2019-01-30T05:08:20.576Z,16.87
2019-01-30T05:10:50.364Z,11.43
2019-01-30T05:13:18.492Z,12.27
2019-01-30T05:15:46.533Z,12.60
2019-01-30T05:18:14.599Z,12.70
2019-01-30T05:20:42.684Z,13.53
2019-01-30T05:23:10.737Z,13.55
2019-01-30T05:25:38.749Z,15.27
2019-01-30T05:28:07.615Z,12.58
2019-01-30T05:30:35.876Z,15.63
2019-01-30T05:33:03.942Z,12.43
2019-01-30T05:35:33.605Z,12.00
2019-01-30T05:38:01.623Z,13.53
2019-01-30T05:40:32.556Z,14.70
2019-01-30T05:43:00.583Z,12.80
2019-01-30T05:45:28.604Z,13.40
2019-01-30T05:47:56.664Z,12.87
2019-01-30T05:50:24.720Z,14.38
2019-01-30T05:52:52.808Z,14.63
2019-01-30T05:55:21.107Z,13.10
2019-01-30T05:57:50.457Z,14.70
2019-01-30T06:00:20.874Z,12.55
2019-01-30T06:02:50.510Z,15.00
2019-01-30T06:05:20.207Z,11.73
2019-01-30T06:07:49.850Z,13.10
2019-01-30T06:10:19.565Z,16.53
2019-01-30T06:12:49.648Z,14.32
2019-01-30T06:15:18.080Z,11.57
2019-01-30T06:17:46.126Z,13.27
2019-01-30T06:23:01.780Z,11.33
2019-01-30T06:25:30.239Z,12.20
2019-01-30T06:27:59.897Z,16.27
2019-01-30T06:33:02.596Z,11.75
2019-01-30T06:35:30.624Z,10.57
2019-01-30T06:37:58.723Z,11.93
2019-01-30T06:43:04.752Z,20.20
2019-01-30T06:45:32.777Z,13.17
2019-01-30T06:48:02.316Z,26.47
2019-01-30T06:50:30.396Z,16.50
2019-01-30T06:52:58.451Z,14.27
2019-01-30T06:55:26.779Z,10.60
2019-01-30T06:57:57.266Z,13.53
2019-01-30T07:00:26.892Z,15.70
2019-01-30T07:02:57.739Z,13.75
2019-01-30T07:05:25.770Z,16.50
2019-01-30T07:07:56.191Z,12.77
2019-01-30T07:10:35.519Z,13.63
2019-01-30T07:13:04.063Z,13.35
2019-01-30T07:15:32.145Z,14.97
2019-01-30T07:18:00.219Z,15.10
2019-01-30T07:20:28.384Z,14.13
2019-01-30T07:22:58.527Z,15.13
2019-01-30T07:25:26.323Z,12.05
2019-01-30T07:27:54.341Z,13.27
2019-01-30T07:30:26.432Z,12.27
2019-01-30T07:32:54.486Z,12.63
2019-01-30T07:35:22.536Z,18.20
2019-01-30T07:37:53.333Z,14.50
2019-01-30T07:40:21.457Z,14.77
2019-01-30T07:42:52.966Z,14.67
2019-01-30T07:45:25.716Z,14.53
2019-01-30T07:47:54.652Z,18.17
2019-01-30T07:50:25.544Z,16.37
2019-01-30T07:52:53.643Z,14.67
2019-01-30T07:55:28.824Z,17.33
2019-01-30T07:58:01.296Z,15.87
2019-01-30T08:00:32.688Z,15.00
2019-01-30T08:03:05.299Z,16.83
2019-01-30T08:05:33.348Z,14.97
2019-01-30T08:08:03.138Z,12.10
2019-01-30T08:10:31.346Z,17.10
2019-01-30T08:12:59.430Z,28.25
2019-01-30T08:15:27.637Z,19.95
2019-01-30T08:18:00.406Z,19.47
2019-01-30T08:20:30.031Z,12.75
2019-01-30T08:23:00.076Z,14.83
2019-01-30T08:25:28.957Z,18.42
2019-01-30T08:27:59.958Z,12.10
2019-01-30T08:33:08.825Z,16.95
2019-01-30T08:35:36.951Z,17.67
2019-01-30T08:38:05.088Z,13.13
2019-01-30T08:40:33.182Z,15.97
2019-01-30T08:43:01.241Z,16.70
2019-01-30T08:45:35.927Z,14.67
2019-01-30T08:48:05.266Z,11.53
2019-01-30T08:50:33.322Z,18.13
2019-01-30T08:53:02.754Z,19.73
2019-01-30T08:55:30.840Z,33.07
2019-01-30T08:57:58.957Z,14.67
2019-01-30T09:00:31.728Z,21.43
2019-01-30T09:02:59.908Z,21.07
2019-01-30T09:05:27.993Z,15.93
2019-01-30T09:07:56.101Z,17.60
2019-01-30T09:10:25.236Z,15.45
2019-01-30T09:12:53.325Z,17.03
2019-01-30T09:15:23.541Z,21.97
2019-01-30T09:17:51.713Z,18.63
2019-01-30T09:20:21.519Z,18.80
2019-01-30T09:22:49.552Z,16.90
2019-01-30T09:25:18.654Z,18.90
2019-01-30T09:27:46.732Z,20.10
2019-01-30T09:30:18.971Z,19.67
2019-01-30T09:32:46.524Z,27.42
2019-01-30T09:35:14.527Z,15.77
2019-01-30T09:37:42.558Z,23.80
2019-01-30T09:40:12.406Z,20.50
2019-01-30T09:42:40.614Z,16.87
2019-01-30T09:45:10.297Z,21.87
2019-01-30T09:47:38.424Z,24.80
2019-01-30T09:50:09.955Z,20.92
2019-01-30T09:52:38.016Z,18.50
2019-01-30T09:55:07.654Z,22.90
2019-01-30T09:57:39.609Z,23.90
2019-01-30T10:00:11.764Z,20.95
2019-01-30T10:02:39.787Z,21.00
2019-01-30T10:05:09.564Z,19.77
2019-01-30T10:07:39.729Z,26.10
2019-01-30T10:10:15.479Z,21.20
2019-01-30T10:12:43.500Z,23.60
2019-01-30T10:15:13.248Z,21.90
2019-01-30T10:17:41.451Z,23.00
2019-01-30T10:20:18.144Z,25.53
2019-01-30T10:22:50.237Z,22.87
2019-01-30T10:25:20.651Z,23.87
2019-01-30T10:27:50.327Z,27.53
2019-01-30T10:32:58.175Z,25.50
2019-01-30T10:35:26.449Z,21.50
2019-01-30T10:37:57.868Z,22.33
2019-01-30T10:43:02.480Z,21.60
2019-01-30T10:45:30.622Z,26.77
2019-01-30T10:47:58.666Z,26.67
2019-01-30T10:50:27.565Z,25.50
2019-01-30T10:52:55.863Z,24.20
2019-01-30T10:55:25.036Z,22.00
2019-01-30T10:57:53.839Z,22.07
2019-01-30T11:00:23.038Z,21.87
2019-01-30T11:02:51.114Z,26.77
2019-01-30T11:05:19.213Z,18.77
2019-01-30T11:07:48.021Z,20.80
2019-01-30T11:10:17.156Z,21.15
2019-01-30T11:12:45.195Z,21.53
2019-01-30T11:15:14.858Z,20.63
2019-01-30T11:17:42.913Z,23.30
2019-01-30T11:20:14.931Z,27.90
2019-01-30T11:22:42.977Z,26.13
2019-01-30T11:25:12.782Z,23.93
2019-01-30T11:27:40.931Z,29.77
2019-01-30T11:30:11.178Z,35.30
2019-01-30T11:32:39.219Z,30.62
2019-01-30T11:35:09.394Z,33.63
2019-01-30T11:37:37.454Z,26.00
2019-01-30T11:40:07.307Z,30.63
2019-01-30T11:42:35.397Z,30.62
2019-01-30T11:45:04.618Z,26.43
2019-01-30T11:47:32.661Z,28.52
2019-01-30T11:50:00.709Z,22.93
2019-01-30T11:52:28.782Z,28.43
2019-01-30T11:54:56.811Z,25.50
2019-01-30T11:57:24.845Z,29.90
2019-01-30T11:59:52.885Z,24.32
2019-01-30T12:02:21.030Z,26.50
2019-01-30T12:04:49.085Z,27.33
2019-01-30T12:07:17.248Z,26.80
2019-01-30T12:09:45.264Z,30.07
2019-01-30T12:12:13.306Z,27.87
2019-01-30T12:14:41.408Z,29.73
2019-01-30T12:17:09.484Z,29.63
2019-01-30T12:19:37.610Z,25.97
2019-01-30T12:22:05.656Z,30.73
2019-01-30T12:24:33.693Z,30.50
2019-01-30T12:27:14.500Z,28.97
2019-01-30T12:29:42.570Z,27.93
2019-01-30T12:32:11.006Z,30.17
2019-01-30T12:34:39.098Z,35.47
2019-01-30T12:37:07.205Z,40.57
2019-01-30T12:39:35.319Z,35.00
2019-01-30T12:42:03.485Z,34.93
2019-01-30T12:44:33.529Z,29.77
2019-01-30T12:47:01.326Z,34.37
2019-01-30T12:49:29.398Z,35.00
2019-01-30T12:51:57.461Z,32.80
2019-01-30T12:54:25.583Z,31.43
2019-01-30T12:56:53.708Z,36.03
2019-01-30T12:59:21.814Z,35.70
2019-01-30T13:01:50.013Z,35.47
2019-01-30T13:04:18.079Z,36.17
2019-01-30T13:06:46.099Z,35.15
2019-01-30T13:09:14.200Z,33.33
2019-01-30T13:11:42.261Z,33.40
2019-01-30T13:14:10.291Z,37.63
2019-01-30T13:16:38.422Z,36.63
2019-01-30T13:19:06.661Z,38.90
2019-01-30T13:21:34.698Z,33.77
2019-01-30T13:24:02.738Z,36.45
2019-01-30T13:26:30.770Z,36.27
2019-01-30T13:28:58.814Z,36.70
2019-01-30T13:31:26.987Z,35.30
2019-01-30T13:33:55.031Z,34.57
2019-01-30T13:36:23.114Z,38.92
2019-01-30T13:38:51.210Z,35.43
2019-01-30T13:41:19.314Z,38.67
2019-01-30T13:43:47.327Z,44.63
2019-01-30T13:46:15.663Z,41.80
2019-01-30T13:48:43.701Z,36.90
2019-01-30T13:51:12.526Z,43.00
2019-01-30T13:53:40.619Z,46.85
2019-01-30T13:56:08.670Z,44.37
2019-01-30T13:58:36.721Z,37.23
2019-01-30T14:01:04.763Z,39.73
2019-01-30T14:03:32.864Z,35.35
2019-01-30T14:06:00.989Z,37.47
2019-01-30T14:08:29.119Z,31.83
2019-01-30T14:10:57.204Z,39.53
2019-01-30T14:13:25.293Z,39.47
2019-01-30T14:15:53.412Z,34.53
2019-01-30T14:18:21.545Z,40.93
2019-01-30T14:20:49.653Z,37.33
2019-01-30T14:23:17.826Z,33.38
2019-01-30T14:25:45.937Z,33.10
2019-01-30T14:28:13.988Z,45.97
2019-01-30T14:30:42.143Z,46.20
2019-01-30T14:33:10.235Z,50.20
2019-01-30T14:35:38.381Z,39.93
2019-01-30T14:38:06.506Z,44.13
2019-01-30T14:40:34.638Z,45.80
2019-01-30T14:43:02.950Z,54.30
2019-01-30T14:45:30.986Z,50.17
2019-01-30T14:47:59.048Z,51.35
2019-01-30T14:50:27.521Z,57.83
2019-01-30T14:52:55.817Z,54.63
2019-01-30T14:55:24.436Z,44.33
2019-01-30T14:57:53.138Z,45.47
2019-01-30T15:00:25.557Z,49.27
2019-01-30T15:02:53.693Z,59.40
2019-01-30T15:05:22.903Z,58.80
2019-01-30T15:07:51.212Z,60.57
2019-01-30T15:10:20.172Z,52.80
2019-01-30T15:12:48.212Z,47.50
2019-01-30T15:15:17.267Z,72.03
2019-01-30T15:17:45.478Z,56.18
2019-01-30T15:20:17.238Z,65.60
2019-01-30T15:22:45.358Z,64.82
2019-01-30T15:25:17.325Z,85.77
2019-01-30T15:27:45.419Z,80.42
2019-01-30T15:30:15.025Z,86.77
2019-01-30T15:32:43.808Z,94.42
2019-01-30T15:35:12.007Z,74.73
2019-01-30T15:37:40.117Z,76.90
2019-01-30T15:40:09.873Z,66.33
2019-01-30T15:42:48.966Z,68.83
2019-01-30T15:45:10.078Z,59.50
2019-01-30T15:47:38.375Z,58.87
2019-01-30T15:50:12.324Z,59.00
2019-01-30T15:52:40.459Z,53.17
2019-01-30T15:55:09.717Z,57.60
2019-01-30T15:57:38.379Z,58.93
2019-01-30T16:00:08.554Z,59.80
2019-01-30T16:02:37.301Z,60.97
2019-01-30T16:05:06.620Z,57.73
2019-01-30T16:07:35.197Z,54.83
2019-01-30T16:10:03.770Z,52.73
2019-01-30T16:12:32.316Z,65.32
2019-01-30T16:15:00.788Z,56.80
2019-01-30T16:17:29.247Z,65.12
2019-01-30T16:19:58.252Z,62.40
2019-01-30T16:22:26.812Z,69.67
2019-01-30T16:24:55.198Z,70.53
2019-01-30T16:27:23.674Z,67.00
2019-01-30T16:29:52.289Z,69.53
2019-01-30T16:32:20.782Z,71.90
2019-01-30T16:34:48.824Z,73.33
2019-01-30T16:37:16.903Z,70.50
2019-01-30T16:39:45.081Z,78.30
2019-01-30T16:42:13.372Z,76.20
2019-01-30T16:44:41.466Z,84.37
2019-01-30T16:47:09.627Z,73.37
2019-01-30T16:49:37.747Z,83.40
2019-01-30T16:52:05.891Z,80.55
2019-01-30T16:54:34.021Z,85.67
2019-01-30T16:57:02.198Z,82.57
2019-01-30T16:59:30.403Z,74.93
2019-01-30T17:01:58.538Z,71.40
2019-01-30T17:04:26.646Z,71.23
2019-01-30T17:06:54.808Z,75.03
2019-01-30T17:09:22.929Z,73.50
2019-01-30T17:11:51.092Z,66.17
2019-01-30T17:14:19.290Z,71.33
2019-01-30T17:16:47.475Z,68.27
2019-01-30T17:19:16.456Z,72.77
2019-01-30T17:21:44.623Z,72.13
2019-01-30T17:24:12.758Z,71.47
2019-01-30T17:26:40.912Z,67.60
2019-01-30T17:29:08.958Z,69.50
2019-01-30T17:31:37.047Z,73.55
2019-01-30T17:34:05.211Z,76.70
2019-01-30T17:36:33.415Z,73.15
2019-01-30T17:39:01.504Z,71.77
2019-01-30T17:41:29.662Z,70.60
2019-01-30T17:43:57.702Z,77.10
2019-01-30T17:46:27.896Z,70.97
2019-01-30T17:48:55.762Z,79.72
2019-01-30T17:51:24.019Z,73.67
2019-01-30T17:53:52.287Z,65.63
2019-01-30T17:56:20.550Z,73.60
2019-01-30T17:58:49.129Z,78.53
2019-01-30T18:01:17.315Z,70.27
2019-01-30T18:03:46.206Z,68.37
2019-01-30T18:06:14.248Z,72.47
2019-01-30T18:08:42.418Z,72.73
2019-01-30T18:11:10.461Z,75.63
2019-01-30T18:13:38.529Z,69.40
2019-01-30T18:16:07.380Z,69.73
2019-01-30T18:18:35.454Z,74.32
2019-01-30T18:21:03.549Z,71.90
2019-01-30T18:23:31.598Z,72.60
2019-01-30T18:26:01.316Z,72.87
2019-01-30T18:28:29.892Z,72.27
2019-01-30T18:30:57.947Z,74.90
2019-01-30T18:33:26.050Z,68.80
2019-01-30T18:35:54.203Z,76.02
2019-01-30T18:38:23.048Z,80.30
2019-01-30T18:40:51.139Z,81.57
2019-01-30T18:43:19.934Z,71.83
2019-01-30T18:45:47.974Z,79.63
2019-01-30T18:48:16.053Z,77.67
2019-01-30T18:50:45.872Z,75.27
2019-01-30T18:53:14.194Z,85.75
2019-01-30T18:55:42.318Z,82.50
2019-01-30T18:58:10.338Z,85.00
2019-01-30T19:00:39.387Z,78.37
2019-01-30T19:03:08.636Z,89.33
2019-01-30T19:05:37.019Z,80.72
2019-01-30T19:08:06.299Z,83.25
2019-01-30T19:10:34.436Z,78.70
2019-01-30T19:13:02.606Z,94.03
2019-01-30T19:15:30.913Z,85.87
2019-01-30T19:17:59.038Z,94.95
2019-01-30T19:20:37.211Z,75.03
2019-01-30T19:23:06.975Z,87.97
2019-01-30T19:25:35.075Z,73.72
2019-01-30T19:28:03.160Z,90.60
2019-01-30T19:30:31.778Z,89.97
2019-01-30T19:33:00.118Z,69.73
2019-01-30T19:35:28.176Z,76.47
2019-01-30T19:37:56.346Z,80.60
2019-01-30T19:40:25.051Z,84.67
2019-01-30T19:42:53.074Z,74.33
2019-01-30T19:45:22.803Z,84.03
2019-01-30T19:47:50.901Z,77.53
2019-01-30T19:50:19.948Z,75.00
2019-01-30T19:52:48.278Z,79.77
2019-01-30T19:55:16.353Z,76.10
2019-01-30T19:57:44.407Z,69.73
2019-01-30T20:00:14.262Z,72.87
2019-01-30T20:02:42.361Z,70.67
2019-01-30T20:05:11.299Z,78.30
2019-01-30T20:07:39.379Z,110.10
2019-01-30T20:10:09.325Z,74.25
2019-01-30T20:12:37.633Z,79.87
2019-01-30T20:15:09.230Z,74.13
2019-01-30T20:17:37.215Z,70.77
2019-01-30T20:20:07.219Z,74.43
2019-01-30T20:22:35.466Z,81.87
2019-01-30T20:25:04.854Z,74.73
2019-01-30T20:27:33.746Z,83.60
2019-01-30T20:30:01.855Z,76.87
2019-01-30T20:32:30.746Z,67.30
2019-01-30T20:34:58.996Z,73.73
2019-01-30T20:37:27.193Z,71.40
2019-01-30T20:39:55.251Z,74.07
2019-01-30T20:42:23.360Z,76.97
2019-01-30T20:44:51.521Z,68.80
2019-01-30T20:47:19.605Z,66.30
2019-01-30T20:49:50.539Z,71.27
2019-01-30T20:52:19.052Z,66.22
2019-01-30T20:54:47.566Z,63.55
2019-01-30T20:57:15.647Z,62.40
2019-01-30T20:59:43.726Z,61.33
2019-01-30T21:02:11.821Z,59.83
2019-01-30T21:04:39.987Z,54.80
2019-01-30T21:07:08.063Z,55.28
2019-01-30T21:09:36.138Z,53.05
2019-01-30T21:12:04.243Z,62.43
2019-01-30T21:14:32.323Z,49.87
2019-01-30T21:17:00.487Z,59.50
2019-01-30T21:19:28.623Z,57.43
2019-01-30T21:21:56.683Z,58.93
2019-01-30T21:24:25.304Z,56.68
2019-01-30T21:26:53.410Z,51.23
2019-01-30T21:29:21.603Z,64.92
2019-01-30T21:31:49.642Z,56.87
2019-01-30T21:34:17.654Z,61.93
2019-01-30T21:36:45.689Z,61.43
2019-01-30T21:39:13.735Z,61.80
2019-01-30T21:41:43.099Z,55.87
2019-01-30T21:44:11.271Z,60.27
2019-01-30T21:46:39.310Z,61.53
2019-01-30T21:49:07.388Z,66.53
2019-01-30T21:51:35.551Z,59.30
2019-01-30T21:54:03.573Z,64.50
2019-01-30T21:56:31.638Z,63.90
2019-01-30T21:58:59.762Z,67.70
2019-01-30T22:01:27.875Z,61.13
2019-01-30T22:03:55.935Z,64.25
2019-01-30T22:06:23.985Z,61.43
2019-01-30T22:08:52.629Z,59.13
2019-01-30T22:11:20.674Z,71.43
2019-01-30T22:13:48.846Z,53.53
2019-01-30T22:16:16.877Z,59.75
2019-01-30T22:18:44.918Z,59.43
2019-01-30T22:21:13.734Z,56.57
2019-01-30T22:23:41.804Z,60.38
2019-01-30T22:26:10.088Z,50.60
2019-01-30T22:28:38.130Z,53.70
2019-01-30T22:31:06.280Z,57.38
2019-01-30T22:33:34.370Z,58.25
2019-01-30T22:36:02.413Z,58.30
2019-01-30T22:38:30.517Z,59.03
2019-01-30T22:40:58.531Z,58.53
2019-01-30T22:43:26.606Z,54.83
2019-01-30T22:45:54.652Z,56.90
2019-01-30T22:48:22.678Z,49.83
2019-01-30T22:50:50.807Z,53.70
2019-01-30T22:53:18.835Z,61.03
2019-01-30T22:55:46.916Z,44.03
2019-01-30T22:58:16.684Z,51.17
2019-01-30T23:00:56.762Z,48.13
2019-01-30T23:03:31.817Z,53.00
2019-01-30T23:06:13.396Z,49.60
2019-01-30T23:08:43.103Z,46.70
2019-01-30T23:11:18.554Z,58.73
2019-01-30T23:13:48.225Z,48.67
2019-01-30T23:16:26.955Z,48.73
2019-01-30T23:19:02.393Z,49.37
2019-01-30T23:21:34.862Z,56.63
2019-01-30T23:24:21.150Z,46.77
2019-01-30T23:26:50.787Z,49.90
2019-01-30T23:29:20.489Z,56.13
2019-01-30T23:31:55.907Z,56.85
2019-01-30T23:34:40.683Z,40.05
2019-01-30T23:37:19.365Z,44.13
2019-01-30T23:39:55.066Z,47.50
2019-01-30T23:42:24.718Z,45.77
2019-01-30T23:44:57.077Z,48.97
2019-01-30T23:47:26.768Z,49.93
2019-01-30T23:49:56.424Z,43.80
2019-01-30T23:52:35.726Z,47.27
2019-01-30T23:55:08.471Z,42.03
2019-01-30T23:57:44.218Z,48.05
